createdAt,value
2022-08-08T00:02:32.850Z,97.75
2022-08-08T00:05:03.079Z,97.34
2022-08-08T00:07:46.431Z,97.33
2022-08-08T00:10:35.293Z,98.98
2022-08-08T00:14:15.421Z,99.43
2022-08-08T00:16:13.339Z,99.25
2022-08-08T00:19:09.647Z,98.43
2022-08-08T00:21:43.798Z,99.08
2022-08-08T00:24:30.067Z,99.48
2022-08-08T00:27:01.242Z,100.00
2022-08-08T00:29:45.904Z,100.00
2022-08-08T00:32:35.329Z,100.00
2022-08-08T00:35:25.493Z,100.00
2022-08-08T00:38:31.882Z,100.00
2022-08-08T00:41:45.273Z,100.00
2022-08-08T00:44:50.895Z,100.00
2022-08-08T00:48:05.522Z,100.00
2022-08-08T00:50:55.820Z,100.00
2022-08-08T00:54:15.979Z,100.00
2022-08-08T00:56:56.071Z,100.00
2022-08-08T01:00:06.515Z,100.00
2022-08-08T01:04:01.157Z,100.00
2022-08-08T01:06:17.131Z,100.00
2022-08-08T01:09:36.159Z,100.00
2022-08-08T01:12:41.899Z,100.00
2022-08-08T01:15:44.518Z,100.00
2022-08-08T01:18:52.782Z,100.00
2022-08-08T01:22:01.799Z,100.00
2022-08-08T01:24:53.955Z,100.00
2022-08-08T01:27:50.770Z,100.00
2022-08-08T01:30:59.592Z,100.00
2022-08-08T01:33:42.841Z,100.00
2022-08-08T01:36:41.024Z,100.00
2022-08-08T01:39:53.750Z,100.00
2022-08-08T01:42:37.612Z,100.00
2022-08-08T01:45:29.167Z,100.00
2022-08-08T01:48:30.239Z,100.00
2022-08-08T01:51:31.939Z,100.00
2022-08-08T01:55:45.038Z,100.00
2022-08-08T01:58:04.582Z,100.00
2022-08-08T02:00:36.066Z,100.00
2022-08-08T02:03:55.148Z,100.00
2022-08-08T02:06:51.964Z,100.00
2022-08-08T02:10:01.290Z,100.00
2022-08-08T02:12:31.362Z,100.00
2022-08-08T02:15:11.464Z,100.00
2022-08-08T02:17:51.256Z,100.00
2022-08-08T02:21:02.819Z,100.00
2022-08-08T02:23:32.007Z,100.00
2022-08-08T02:26:10.185Z,100.00
2022-08-08T02:28:51.539Z,100.00
2022-08-08T02:32:05.196Z,100.00
2022-08-08T02:35:13.733Z,100.00
2022-08-08T02:38:25.278Z,100.00
2022-08-08T02:41:59.183Z,100.00
2022-08-08T02:44:43.139Z,100.00
2022-08-08T02:47:54.793Z,100.00
2022-08-08T02:50:55.706Z,100.00
2022-08-08T02:53:42.495Z,100.00
2022-08-08T02:56:45.658Z,100.00
2022-08-08T02:59:37.015Z,100.00
2022-08-08T03:03:00.787Z,100.00
2022-08-08T03:05:59.223Z,100.00
2022-08-08T03:09:04.631Z,100.00
2022-08-08T03:12:16.912Z,100.00
2022-08-08T03:16:01.150Z,100.00
2022-08-08T03:18:34.839Z,100.00
2022-08-08T03:21:09.509Z,100.00
2022-08-08T03:23:54.717Z,100.00
2022-08-08T03:26:30.802Z,100.00
2022-08-08T03:29:03.314Z,100.00
2022-08-08T03:32:06.430Z,100.00
2022-08-08T03:34:35.215Z,100.00
2022-08-08T03:37:20.178Z,100.00
2022-08-08T03:40:00.441Z,100.00
2022-08-08T03:42:30.862Z,100.00
2022-08-08T03:44:57.573Z,100.00
2022-08-08T03:47:25.793Z,100.00
2022-08-08T03:50:19.822Z,100.00
2022-08-08T03:52:46.930Z,100.00
2022-08-08T03:55:56.597Z,100.00
2022-08-08T03:58:30.074Z,100.00
2022-08-08T04:01:01.803Z,100.00
2022-08-08T04:04:00.163Z,100.00
2022-08-08T04:06:22.473Z,100.00
2022-08-08T04:08:49.545Z,100.00
2022-08-08T04:11:17.643Z,100.00
2022-08-08T04:14:04.243Z,100.00
2022-08-08T04:16:38.934Z,100.00
2022-08-08T04:19:23.339Z,100.00
2022-08-08T04:21:51.563Z,100.00
2022-08-08T04:24:28.332Z,100.00
2022-08-08T04:26:57.509Z,100.00
2022-08-08T04:29:24.838Z,100.00
2022-08-08T04:31:59.555Z,100.00
2022-08-08T04:34:31.858Z,100.00
2022-08-08T04:37:10.232Z,100.00
2022-08-08T04:40:04.621Z,100.00
2022-08-08T04:42:25.969Z,100.00
2022-08-08T04:44:55.646Z,100.00
2022-08-08T04:47:24.502Z,100.00
2022-08-08T04:50:00.663Z,100.00
2022-08-08T04:52:33.408Z,100.00
2022-08-08T04:55:01.460Z,100.00
2022-08-08T04:57:28.283Z,100.00
2022-08-08T04:59:55.333Z,100.00
2022-08-08T05:02:30.428Z,100.00
2022-08-08T05:04:59.569Z,100.00
2022-08-08T05:07:27.151Z,100.00
2022-08-08T05:10:05.614Z,100.00
2022-08-08T05:12:36.816Z,100.00
2022-08-08T05:15:09.468Z,100.00
2022-08-08T05:17:54.392Z,100.00
2022-08-08T05:20:21.196Z,100.00
2022-08-08T05:22:51.284Z,100.00
2022-08-08T05:25:18.268Z,100.00
2022-08-08T05:27:48.057Z,100.00
2022-08-08T05:30:14.893Z,99.98
2022-08-08T05:32:42.555Z,98.94
2022-08-08T05:35:10.110Z,99.12
2022-08-08T05:37:53.020Z,99.41
2022-08-08T05:40:28.476Z,97.42
2022-08-08T05:43:38.786Z,97.44
2022-08-08T05:46:03.097Z,95.71
2022-08-08T05:48:32.233Z,96.62
2022-08-08T05:51:13.325Z,96.63
2022-08-08T05:53:56.082Z,95.74
2022-08-08T05:56:38.675Z,94.99
2022-08-08T05:59:58.831Z,94.28
2022-08-08T06:02:40.697Z,93.83
2022-08-08T06:05:32.891Z,94.72
2022-08-08T06:08:02.895Z,93.75
2022-08-08T06:10:39.136Z,92.53
2022-08-08T06:13:07.801Z,92.60
2022-08-08T06:15:50.890Z,92.15
2022-08-08T06:18:22.297Z,89.99
2022-08-08T06:20:52.904Z,89.81
2022-08-08T06:23:32.730Z,90.53
2022-08-08T06:26:44.562Z,90.29
2022-08-08T06:29:26.274Z,86.48
2022-08-08T06:32:10.422Z,88.36
2022-08-08T06:34:56.501Z,88.33
2022-08-08T06:37:37.431Z,85.79
2022-08-08T06:40:12.120Z,86.47
2022-08-08T06:42:57.741Z,84.01
2022-08-08T06:45:27.182Z,83.32
2022-08-08T06:48:01.392Z,82.90
2022-08-08T06:50:31.760Z,83.56
2022-08-08T06:53:10.087Z,81.27
2022-08-08T06:55:42.194Z,80.74
2022-08-08T06:58:09.857Z,79.66
2022-08-08T07:00:40.812Z,76.92
2022-08-08T07:03:19.782Z,73.29
2022-08-08T07:06:03.278Z,73.37
2022-08-08T07:08:37.189Z,73.37
2022-08-08T07:11:05.282Z,72.41
2022-08-08T07:14:00.832Z,67.80
2022-08-08T07:16:51.305Z,70.51
2022-08-08T07:19:37.977Z,67.64
2022-08-08T07:22:18.292Z,65.44
2022-08-08T07:25:01.708Z,61.70
2022-08-08T07:28:01.818Z,61.03
2022-08-08T07:30:25.782Z,60.68
2022-08-08T07:32:53.469Z,60.87
2022-08-08T07:35:21.549Z,55.90
2022-08-08T07:38:04.540Z,54.71
2022-08-08T07:40:37.579Z,53.03
2022-08-08T07:43:09.421Z,49.30
2022-08-08T07:46:05.170Z,49.14
2022-08-08T07:51:23.394Z,39.96
2022-08-08T07:54:34.802Z,40.17
2022-08-08T07:57:16.991Z,41.44
2022-08-08T08:00:05.464Z,37.90
2022-08-08T08:03:04.185Z,36.60
2022-08-08T08:05:33.950Z,39.48
2022-08-08T08:08:06.811Z,38.82
2022-08-08T08:10:35.898Z,37.67
2022-08-08T08:13:43.013Z,33.40
2022-08-08T08:16:21.789Z,37.36
2022-08-08T08:18:58.354Z,33.51
2022-08-08T08:21:35.332Z,35.33
2022-08-08T08:24:12.025Z,32.91
2022-08-08T08:26:39.657Z,33.57
2022-08-08T08:29:13.895Z,34.19
2022-08-08T08:31:43.290Z,31.62
2022-08-08T08:34:09.824Z,32.48
2022-08-08T08:36:37.198Z,34.06
2022-08-08T08:39:07.567Z,34.31
2022-08-08T08:41:48.624Z,32.14
2022-08-08T08:44:16.177Z,30.83
2022-08-08T08:46:51.044Z,32.70
2022-08-08T08:49:27.713Z,31.40
2022-08-08T08:52:01.721Z,32.34
2022-08-08T08:54:32.439Z,31.66
2022-08-08T08:57:02.863Z,30.48
2022-08-08T09:00:00.126Z,27.60
2022-08-08T09:02:34.326Z,29.64
2022-08-08T09:05:04.319Z,31.61
2022-08-08T09:07:39.419Z,31.21
2022-08-08T09:10:19.841Z,35.93
2022-08-08T09:12:50.943Z,36.10
2022-08-08T09:15:24.206Z,37.92
2022-08-08T09:18:04.292Z,36.74
2022-08-08T09:22:02.280Z,36.21
2022-08-08T09:23:25.516Z,36.08
2022-08-08T09:26:02.138Z,33.06
2022-08-08T09:28:37.981Z,35.87
2022-08-08T09:31:15.555Z,35.70
2022-08-08T09:34:06.082Z,36.58
2022-08-08T09:36:34.128Z,36.57
2022-08-08T09:39:15.279Z,36.21
2022-08-08T09:42:14.896Z,36.99
2022-08-08T09:44:43.143Z,35.80
2022-08-08T09:47:25.495Z,34.07
2022-08-08T09:50:04.825Z,35.65
2022-08-08T09:53:05.720Z,33.35
2022-08-08T09:55:31.163Z,33.39
2022-08-08T09:58:27.701Z,34.48
2022-08-08T10:01:14.897Z,34.79
2022-08-08T10:03:58.478Z,31.98
2022-08-08T10:06:29.935Z,35.22
2022-08-08T10:09:00.807Z,34.97
2022-08-08T10:12:27.506Z,35.39
2022-08-08T10:14:28.636Z,34.81
2022-08-08T10:17:03.742Z,35.53
2022-08-08T10:19:58.560Z,34.38
2022-08-08T10:22:28.522Z,35.67
2022-08-08T10:27:57.790Z,34.52
2022-08-08T10:30:59.643Z,32.33
2022-08-08T10:33:12.486Z,32.78
2022-08-08T10:36:19.358Z,35.03
2022-08-08T10:38:30.995Z,33.98
2022-08-08T10:41:03.557Z,33.88
2022-08-08T10:43:40.346Z,36.30
2022-08-08T10:46:30.802Z,35.58
2022-08-08T10:48:59.342Z,35.64
2022-08-08T10:51:31.086Z,35.29
2022-08-08T10:54:02.039Z,34.86
2022-08-08T10:56:35.823Z,35.53
2022-08-08T10:59:12.222Z,34.31
2022-08-08T11:01:49.603Z,35.35
2022-08-08T11:04:38.682Z,36.40
2022-08-08T11:07:07.168Z,39.72
2022-08-08T11:09:34.250Z,38.58
2022-08-08T11:12:12.639Z,38.77
2022-08-08T11:14:54.354Z,37.59
2022-08-08T11:17:58.155Z,37.94
2022-08-08T11:20:13.203Z,37.84
2022-08-08T11:22:41.029Z,39.23
2022-08-08T11:25:14.750Z,39.96
2022-08-08T11:27:46.967Z,36.80
2022-08-08T11:30:24.419Z,37.30
2022-08-08T11:32:56.718Z,37.21
2022-08-08T11:35:42.153Z,39.49
2022-08-08T11:38:36.543Z,38.23
2022-08-08T11:40:56.708Z,39.72
2022-08-08T11:43:39.573Z,39.22
2022-08-08T11:46:13.962Z,35.27
2022-08-08T11:48:47.075Z,35.56
2022-08-08T11:51:37.960Z,35.61
2022-08-08T11:54:04.202Z,37.20
2022-08-08T11:56:35.709Z,38.29
2022-08-08T11:59:10.474Z,37.67
2022-08-08T12:01:37.737Z,40.54
2022-08-08T12:04:05.677Z,41.04
2022-08-08T12:06:33.666Z,39.87
2022-08-08T12:09:08.153Z,41.56
2022-08-08T12:11:43.994Z,42.47
2022-08-08T12:14:22.940Z,42.68
2022-08-08T12:16:52.498Z,42.92
2022-08-08T12:19:37.405Z,43.46
2022-08-08T12:22:13.221Z,42.09
2022-08-08T12:24:53.971Z,42.75
2022-08-08T12:27:26.525Z,44.04
2022-08-08T12:29:59.031Z,44.62
2022-08-08T12:32:25.830Z,44.00
2022-08-08T12:35:04.747Z,44.14
2022-08-08T12:37:41.190Z,44.38
2022-08-08T12:40:22.979Z,45.92
2022-08-08T12:42:52.625Z,42.78
2022-08-08T12:45:58.515Z,41.54
2022-08-08T12:48:38.003Z,41.60
2022-08-08T12:51:04.655Z,38.53
2022-08-08T12:53:35.247Z,39.91
2022-08-08T12:56:18.713Z,43.09
2022-08-08T12:58:50.619Z,40.58
2022-08-08T13:01:17.141Z,43.33
2022-08-08T13:03:51.968Z,42.50
2022-08-08T13:06:20.325Z,41.63
2022-08-08T13:08:53.711Z,42.35
2022-08-08T13:12:24.455Z,42.08
2022-08-08T13:14:37.617Z,41.73
2022-08-08T13:17:05.879Z,43.95
2022-08-08T13:19:49.676Z,41.98
2022-08-08T13:22:17.828Z,40.87
2022-08-08T13:24:48.811Z,39.63
2022-08-08T13:27:21.691Z,39.20
2022-08-08T13:30:00.124Z,40.34
2022-08-08T13:32:30.248Z,38.05
2022-08-08T13:34:59.442Z,38.99
2022-08-08T13:37:28.139Z,39.92
2022-08-08T13:40:18.154Z,39.61
2022-08-08T13:42:53.519Z,38.48
2022-08-08T13:45:23.922Z,39.88
2022-08-08T13:48:00.688Z,37.48
2022-08-08T13:50:35.188Z,39.67
2022-08-08T13:53:24.587Z,40.61
2022-08-08T13:56:05.244Z,43.04
2022-08-08T13:58:33.087Z,43.26
2022-08-08T14:01:15.409Z,40.49
2022-08-08T14:03:54.244Z,41.37
2022-08-08T14:06:33.230Z,41.32
2022-08-08T14:09:24.420Z,43.92
2022-08-08T14:11:50.834Z,44.83
2022-08-08T14:14:21.260Z,40.77
2022-08-08T14:16:53.594Z,42.31
2022-08-08T14:19:57.577Z,43.33
2022-08-08T14:22:26.764Z,43.14
2022-08-08T14:24:59.747Z,41.62
2022-08-08T14:27:33.337Z,40.65
2022-08-08T14:30:17.286Z,44.33
2022-08-08T14:32:53.271Z,44.37
2022-08-08T14:35:24.461Z,44.38
2022-08-08T14:38:09.357Z,45.21
2022-08-08T14:40:40.454Z,42.92
2022-08-08T14:43:22.573Z,44.96
2022-08-08T14:46:06.225Z,43.85
2022-08-08T14:48:57.221Z,43.40
2022-08-08T14:51:47.215Z,43.76
2022-08-08T14:54:13.916Z,42.64
2022-08-08T14:56:42.799Z,44.08
2022-08-08T14:59:22.025Z,44.47
2022-08-08T15:01:58.477Z,42.18
2022-08-08T15:04:26.233Z,44.33
2022-08-08T15:06:52.893Z,44.64
2022-08-08T15:09:22.541Z,44.38
2022-08-08T15:11:53.124Z,44.12
2022-08-08T15:14:25.234Z,43.94
2022-08-08T15:16:53.410Z,43.74
2022-08-08T15:19:21.008Z,44.41
2022-08-08T15:21:50.355Z,43.72
2022-08-08T15:24:16.922Z,44.21
2022-08-08T15:26:52.403Z,42.75
2022-08-08T15:29:18.990Z,43.95
2022-08-08T15:32:03.492Z,44.02
2022-08-08T15:34:36.415Z,47.01
2022-08-08T15:37:05.730Z,44.64
2022-08-08T15:39:38.453Z,45.08
2022-08-08T15:42:13.449Z,43.73
2022-08-08T15:44:51.457Z,44.33
2022-08-08T15:47:20.426Z,42.96
2022-08-08T15:49:48.930Z,43.35
2022-08-08T15:52:17.948Z,43.74
2022-08-08T15:54:51.418Z,45.91
2022-08-08T15:57:18.452Z,47.08
2022-08-08T16:00:06.325Z,46.20
2022-08-08T16:02:32.076Z,45.41
2022-08-08T16:07:53.884Z,46.40
2022-08-08T16:13:04.844Z,45.76
2022-08-08T16:13:45.735Z,45.42
2022-08-08T16:16:17.166Z,45.79
2022-08-08T16:18:53.451Z,45.23
2022-08-08T16:21:27.710Z,45.38
2022-08-08T16:23:55.875Z,44.86
2022-08-08T16:26:29.201Z,47.80
2022-08-08T16:29:01.481Z,46.19
2022-08-08T16:31:30.077Z,45.90
2022-08-08T16:33:59.365Z,48.17
2022-08-08T16:36:27.987Z,46.29
2022-08-08T16:39:00.680Z,47.50
2022-08-08T16:41:27.078Z,46.08
2022-08-08T16:43:55.879Z,47.53
2022-08-08T16:46:37.057Z,46.54
2022-08-08T16:49:04.666Z,46.84
2022-08-08T16:55:03.017Z,45.88
2022-08-08T16:55:20.751Z,47.20
2022-08-08T16:57:22.956Z,49.03
2022-08-08T16:59:52.595Z,45.53
2022-08-08T17:02:38.052Z,45.02
2022-08-08T17:05:07.512Z,46.05
2022-08-08T17:07:37.698Z,48.68
2022-08-08T17:10:07.897Z,48.85
2022-08-08T17:12:34.714Z,49.15
2022-08-08T17:15:17.147Z,47.03
2022-08-08T17:18:02.673Z,46.27
2022-08-08T17:20:32.366Z,46.14
2022-08-08T17:23:16.609Z,47.45
2022-08-08T17:28:35.686Z,47.18
2022-08-08T17:31:39.420Z,47.64
2022-08-08T17:34:52.733Z,47.89
2022-08-08T17:36:37.413Z,46.18
2022-08-08T17:39:05.461Z,46.47
2022-08-08T17:41:58.285Z,46.57
2022-08-08T17:44:26.991Z,45.87
2022-08-08T17:46:55.100Z,47.24
2022-08-08T17:49:24.923Z,47.96
2022-08-08T17:51:55.082Z,48.18
2022-08-08T17:54:22.201Z,49.32
2022-08-08T17:56:54.023Z,48.69
2022-08-08T17:59:23.380Z,48.09
2022-08-08T18:02:01.823Z,48.65
2022-08-08T18:04:32.875Z,49.11
2022-08-08T18:07:05.828Z,48.86
2022-08-08T18:09:52.220Z,48.97
2022-08-08T18:12:19.708Z,48.69
2022-08-08T18:14:50.228Z,49.15
2022-08-08T18:17:28.513Z,49.08
2022-08-08T18:20:43.110Z,49.77
2022-08-08T18:22:53.477Z,49.95
2022-08-08T18:25:20.120Z,50.04
2022-08-08T18:27:46.878Z,50.71
2022-08-08T18:30:13.911Z,50.74
2022-08-08T18:32:44.265Z,50.96
2022-08-08T18:35:15.743Z,51.23
2022-08-08T18:37:48.629Z,52.32
2022-08-08T18:40:15.204Z,52.39
2022-08-08T18:42:45.715Z,53.09
2022-08-08T18:45:44.647Z,54.45
2022-08-08T18:48:07.519Z,55.65
2022-08-08T18:50:34.481Z,55.82
2022-08-08T18:53:07.277Z,58.62
2022-08-08T18:55:33.787Z,60.06
2022-08-08T18:58:00.186Z,61.18
2022-08-08T19:00:26.655Z,63.84
2022-08-08T19:03:03.986Z,64.38
2022-08-08T19:05:45.083Z,64.65
2022-08-08T19:08:24.891Z,63.54
2022-08-08T19:11:01.627Z,67.06
2022-08-08T19:13:53.308Z,65.85
2022-08-08T19:16:19.223Z,67.13
2022-08-08T19:18:51.559Z,68.29
2022-08-08T19:21:30.342Z,68.59
2022-08-08T19:23:59.603Z,68.99
2022-08-08T19:26:30.329Z,69.66
2022-08-08T19:28:57.821Z,69.94
2022-08-08T19:31:31.097Z,73.04
2022-08-08T19:34:04.643Z,74.33
2022-08-08T19:36:45.503Z,74.06
2022-08-08T19:39:12.088Z,74.44
2022-08-08T19:41:41.667Z,73.99
2022-08-08T19:44:12.949Z,73.50
2022-08-08T19:46:53.055Z,75.97
2022-08-08T19:49:19.813Z,77.76
2022-08-08T19:51:49.154Z,77.05
2022-08-08T19:54:15.567Z,76.73
2022-08-08T19:56:48.864Z,78.32
2022-08-08T19:59:15.511Z,79.45
2022-08-08T20:01:59.799Z,78.83
2022-08-08T20:04:29.525Z,78.53
2022-08-08T20:06:56.751Z,77.92
2022-08-08T20:09:23.506Z,80.39
2022-08-08T20:11:52.084Z,81.25
2022-08-08T20:14:34.177Z,78.90
2022-08-08T20:17:02.071Z,78.75
2022-08-08T20:19:33.497Z,79.11
2022-08-08T20:22:20.517Z,80.59
2022-08-08T20:24:51.966Z,81.45
2022-08-08T20:27:21.105Z,80.03
2022-08-08T20:29:55.828Z,83.58
2022-08-08T20:32:28.252Z,83.88
2022-08-08T20:35:00.843Z,82.78
2022-08-08T20:37:46.880Z,84.28
2022-08-08T20:40:16.897Z,85.29
2022-08-08T20:42:54.723Z,85.34
2022-08-08T20:45:58.016Z,87.33
2022-08-08T20:48:08.332Z,88.03
2022-08-08T20:50:35.270Z,88.09
2022-08-08T20:53:01.728Z,88.34
2022-08-08T20:55:29.141Z,87.77
2022-08-08T20:58:02.305Z,85.90
2022-08-08T21:00:28.980Z,88.08
2022-08-08T21:02:56.831Z,88.41
2022-08-08T21:05:23.571Z,88.99
2022-08-08T21:08:36.859Z,87.69
2022-08-08T21:10:44.943Z,87.33
2022-08-08T21:13:11.384Z,88.13
2022-08-08T21:16:04.186Z,85.86
2022-08-08T21:18:24.803Z,86.81
2022-08-08T21:20:54.587Z,90.29
2022-08-08T21:23:58.651Z,87.40
2022-08-08T21:26:07.760Z,86.91
2022-08-08T21:28:36.219Z,90.03
2022-08-08T21:31:21.970Z,89.93
2022-08-08T21:33:49.724Z,89.29
2022-08-08T21:36:28.851Z,91.15
2022-08-08T21:38:56.259Z,89.26
2022-08-08T21:41:38.671Z,89.94
2022-08-08T21:44:09.235Z,90.85
2022-08-08T21:48:07.614Z,90.26
2022-08-08T21:49:23.399Z,91.01
2022-08-08T21:54:22.852Z,90.63
2022-08-08T21:54:54.875Z,91.04
2022-08-08T21:57:24.734Z,92.26
2022-08-08T22:00:03.996Z,92.55
2022-08-08T22:02:31.728Z,92.26
2022-08-08T22:05:00.906Z,92.03
2022-08-08T22:07:39.694Z,94.12
2022-08-08T22:10:09.362Z,92.86
2022-08-08T22:12:36.311Z,93.55
2022-08-08T22:15:04.314Z,92.96
2022-08-08T22:17:31.535Z,93.46
2022-08-08T22:20:10.563Z,92.96
2022-08-08T22:22:38.524Z,94.53
2022-08-08T22:25:17.723Z,92.73
2022-08-08T22:28:03.842Z,92.21
2022-08-08T22:30:40.472Z,93.29
2022-08-08T22:34:11.271Z,93.21
2022-08-08T22:36:04.613Z,95.09
2022-08-08T22:38:39.512Z,91.40
2022-08-08T22:41:16.105Z,94.05
2022-08-08T22:44:05.700Z,94.33
2022-08-08T22:46:38.669Z,93.82
2022-08-08T22:49:05.946Z,91.54
2022-08-08T22:51:34.840Z,92.71
2022-08-08T22:54:32.762Z,91.13
2022-08-08T22:56:55.167Z,92.68
2022-08-08T22:59:21.775Z,92.40
2022-08-08T23:02:01.778Z,93.94
2022-08-08T23:04:32.301Z,93.67
2022-08-08T23:07:02.765Z,93.92
2022-08-08T23:09:30.421Z,92.47
2022-08-08T23:12:18.198Z,92.62
2022-08-08T23:14:53.332Z,92.93
2022-08-08T23:17:30.078Z,94.60
2022-08-08T23:19:56.631Z,94.76
2022-08-08T23:22:23.021Z,94.83
2022-08-08T23:24:50.574Z,96.28
2022-08-08T23:27:37.793Z,97.01
2022-08-08T23:30:05.501Z,97.88
2022-08-08T23:32:35.745Z,98.35
2022-08-08T23:35:16.921Z,97.33
2022-08-08T23:38:00.942Z,98.91
2022-08-08T23:40:29.072Z,96.68
2022-08-08T23:42:56.608Z,100.00
2022-08-08T23:49:00.795Z,98.16
2022-08-08T23:49:05.464Z,97.51
2022-08-08T23:50:57.362Z,99.27
2022-08-08T23:53:55.875Z,98.62
2022-08-08T23:56:10.455Z,98.84
2022-08-08T23:58:38.543Z,99.75
